createdAt,value
2023-01-13T00:02:40.286Z,99963.16
2023-01-13T00:06:51.900Z,99968.28
2023-01-13T00:11:03.511Z,99972.75
2023-01-13T00:15:15.185Z,99983.28
2023-01-13T00:19:26.720Z,99980.28
2023-01-13T00:23:39.548Z,99982.66
2023-01-13T00:27:51.155Z,99980.22
2023-01-13T00:32:02.855Z,99976.13
2023-01-13T00:36:15.957Z,99969.75
2023-01-13T00:40:27.494Z,99983.38
2023-01-13T00:44:39.006Z,99990.94
2023-01-13T00:48:51.573Z,99989.78
2023-01-13T00:53:08.255Z,99990.94
2023-01-13T00:57:19.872Z,99991.41
2023-01-13T01:01:31.561Z,99984.97
2023-01-13T01:05:43.125Z,99984.28
2023-01-13T01:09:54.681Z,99968.09
2023-01-13T01:14:06.792Z,99969.50
2023-01-13T01:18:18.329Z,99971.03
2023-01-13T01:22:30.364Z,99968.66
2023-01-13T01:26:41.963Z,99971.38
2023-01-13T01:30:55.323Z,99953.78
2023-01-13T01:35:07.184Z,99954.13
2023-01-13T01:39:18.749Z,99956.34
2023-01-13T01:44:06.849Z,99954.38
2023-01-13T01:48:19.589Z,99969.63
2023-01-13T01:52:36.833Z,99968.75
2023-01-13T01:56:49.118Z,99975.38
2023-01-13T02:01:01.380Z,99972.25
2023-01-13T02:05:13.521Z,99954.19
2023-01-13T02:09:26.733Z,99959.97
2023-01-13T02:13:38.449Z,99967.66
2023-01-13T02:18:05.617Z,99973.34
2023-01-13T02:22:48.275Z,99972.91
2023-01-13T02:27:18.444Z,99976.47
2023-01-13T02:31:44.301Z,99975.13
2023-01-13T02:36:17.209Z,99967.56
2023-01-13T02:40:45.689Z,99977.81
2023-01-13T02:45:10.213Z,99961.97
2023-01-13T02:49:32.046Z,99962.22
2023-01-13T02:54:01.767Z,99950.09
2023-01-13T02:58:17.382Z,99934.31
2023-01-13T03:02:29.274Z,99925.03
2023-01-13T03:07:04.268Z,99921.09
2023-01-13T03:11:18.713Z,99927.47
2023-01-13T03:15:52.798Z,99917.28
2023-01-13T03:20:09.234Z,99923.31
2023-01-13T03:24:25.910Z,99916.03
2023-01-13T03:28:44.736Z,99921.16
2023-01-13T03:33:02.559Z,99911.63
2023-01-13T03:37:17.028Z,99900.44
2023-01-13T03:41:28.569Z,99902.53
2023-01-13T03:45:43.292Z,99898.91
2023-01-13T03:50:08.172Z,99918.16
2023-01-13T03:54:23.796Z,99905.69
2023-01-13T03:58:40.456Z,99914.66
2023-01-13T04:02:57.314Z,99904.19
2023-01-13T04:07:35.173Z,99923.97
2023-01-13T04:11:56.277Z,99911.84
2023-01-13T04:16:08.802Z,99920.78
2023-01-13T04:20:20.930Z,99931.47
2023-01-13T04:24:32.460Z,99921.78
2023-01-13T04:28:43.982Z,99926.97
2023-01-13T04:32:55.525Z,99917.84
2023-01-13T04:37:06.984Z,99922.03
2023-01-13T04:41:18.556Z,99915.75
2023-01-13T04:45:30.308Z,99923.41
2023-01-13T04:49:41.792Z,99926.53
2023-01-13T04:53:53.332Z,99913.25
2023-01-13T04:58:09.887Z,99909.84
2023-01-13T05:02:21.478Z,99926.25
2023-01-13T05:06:33.218Z,99932.66
2023-01-13T05:10:44.689Z,99940.00
2023-01-13T05:15:14.812Z,99931.28
2023-01-13T05:19:31.600Z,99928.53
2023-01-13T05:24:01.846Z,99915.59
2023-01-13T05:28:13.541Z,99911.66
2023-01-13T05:32:27.868Z,99919.34
2023-01-13T05:36:39.503Z,99915.78
2023-01-13T05:41:09.540Z,99906.13
2023-01-13T05:45:21.075Z,99926.06
2023-01-13T05:49:32.610Z,99912.84
2023-01-13T05:53:44.173Z,99922.88
2023-01-13T05:57:55.669Z,99909.22
2023-01-13T06:02:07.163Z,99914.28
2023-01-13T06:06:18.645Z,99908.41
2023-01-13T06:10:30.654Z,99910.84
2023-01-13T06:14:42.105Z,99931.66
2023-01-13T06:18:54.558Z,99923.97
2023-01-13T06:23:09.968Z,99937.78
2023-01-13T06:27:22.953Z,99927.22
2023-01-13T06:31:39.099Z,99935.50
2023-01-13T06:35:55.339Z,99936.31
2023-01-13T06:40:07.661Z,99917.25
2023-01-13T06:44:20.977Z,99912.41
2023-01-13T06:48:36.135Z,99949.00
2023-01-13T06:52:50.807Z,99948.78
2023-01-13T06:57:02.540Z,99954.69
2023-01-13T07:01:14.143Z,99959.75
2023-01-13T07:05:25.720Z,99960.09
2023-01-13T07:09:37.333Z,99969.91
2023-01-13T07:14:07.638Z,99959.56
2023-01-13T07:18:19.140Z,99958.97
2023-01-13T07:22:30.651Z,99968.78
2023-01-13T07:26:42.177Z,99975.53
2023-01-13T07:30:54.103Z,99959.94
2023-01-13T07:35:06.289Z,99970.91
2023-01-13T07:39:17.867Z,99976.47
2023-01-13T07:43:32.331Z,99966.44
2023-01-13T07:47:43.834Z,99976.22
2023-01-13T07:51:55.621Z,99969.34
2023-01-13T07:56:08.275Z,99977.75
2023-01-13T08:00:20.303Z,99975.59
2023-01-13T08:04:31.800Z,99985.16
2023-01-13T08:08:43.310Z,99988.59
2023-01-13T08:13:13.557Z,99989.63
2023-01-13T08:17:25.068Z,99985.22
2023-01-13T08:21:36.545Z,99991.41
2023-01-13T08:25:48.884Z,99997.22
2023-01-13T08:30:00.685Z,100008.75
2023-01-13T08:34:12.208Z,100000.34
2023-01-13T08:38:24.641Z,100006.44
2023-01-13T08:42:36.385Z,100013.06
2023-01-13T08:46:47.829Z,100021.00
2023-01-13T08:51:05.544Z,100015.66
2023-01-13T08:55:17.093Z,100013.31
2023-01-13T08:59:28.608Z,100014.63
2023-01-13T09:03:41.791Z,100000.19
2023-01-13T09:07:53.344Z,100015.78
2023-01-13T09:12:24.556Z,100014.50
2023-01-13T09:16:36.046Z,100023.56
2023-01-13T09:20:47.599Z,100027.28
2023-01-13T09:24:59.212Z,100038.50
2023-01-13T09:29:10.868Z,100043.06
2023-01-13T09:33:41.168Z,100019.22
2023-01-13T09:37:59.041Z,100030.41
2023-01-13T09:43:08.226Z,100064.34
2023-01-13T09:47:35.930Z,100081.56
2023-01-13T09:51:55.445Z,100081.56
2023-01-13T09:56:10.669Z,100085.38
2023-01-13T10:00:28.751Z,100093.50
2023-01-13T10:04:40.391Z,100094.41
2023-01-13T10:08:51.929Z,100112.91
2023-01-13T10:13:15.076Z,100112.78
2023-01-13T10:17:43.744Z,100117.69
2023-01-13T10:22:04.840Z,100128.38
2023-01-13T10:26:39.780Z,100128.38
2023-01-13T10:30:51.496Z,100120.81
2023-01-13T10:35:03.359Z,100118.13
2023-01-13T10:39:16.933Z,100115.44
2023-01-13T10:43:29.948Z,100139.41
2023-01-13T10:47:42.814Z,100135.19
2023-01-13T10:51:54.356Z,100136.00
2023-01-13T10:56:06.225Z,100139.19
2023-01-13T11:00:26.504Z,100148.16
2023-01-13T11:04:40.594Z,100146.88
2023-01-13T11:08:55.210Z,100140.81
2023-01-13T11:13:15.783Z,100155.91
2023-01-13T11:18:00.438Z,100161.34
2023-01-13T11:22:17.559Z,100176.72
2023-01-13T11:26:43.631Z,100168.56
2023-01-13T11:31:11.160Z,100146.34
2023-01-13T11:35:24.036Z,100168.91
2023-01-13T11:40:06.622Z,100164.41
2023-01-13T11:44:54.947Z,100174.94
2023-01-13T11:49:07.027Z,100178.66
2023-01-13T11:53:27.503Z,100180.53
2023-01-13T11:58:01.565Z,100190.50
2023-01-13T12:02:38.806Z,100202.66
2023-01-13T12:07:13.820Z,100197.06
2023-01-13T12:12:00.804Z,100212.47
2023-01-13T12:16:23.609Z,100211.66
2023-01-13T12:21:00.031Z,100212.56
2023-01-13T12:25:20.755Z,100216.19
2023-01-13T12:29:37.633Z,100231.75
2023-01-13T12:34:17.800Z,100223.72
2023-01-13T12:38:34.310Z,100229.72
2023-01-13T12:43:33.869Z,100247.19
2023-01-13T12:47:46.410Z,100248.56
2023-01-13T12:51:57.884Z,100250.63
2023-01-13T12:56:24.652Z,100251.50
2023-01-13T13:00:39.289Z,100257.91
2023-01-13T13:04:53.513Z,100260.28
2023-01-13T13:09:17.264Z,100267.13
2023-01-13T13:13:47.536Z,100273.38
2023-01-13T13:17:59.419Z,100281.56
2023-01-13T13:22:12.316Z,100284.84
2023-01-13T13:26:36.098Z,100263.03
2023-01-13T13:31:05.748Z,100305.31
2023-01-13T13:35:23.419Z,100308.34
2023-01-13T13:39:55.063Z,100317.22
2023-01-13T13:44:53.405Z,100318.41
2023-01-13T13:49:04.990Z,100313.72
2023-01-13T13:53:25.577Z,100322.13
2023-01-13T13:57:42.456Z,100293.72
2023-01-13T14:02:06.128Z,100299.97
2023-01-13T14:06:33.542Z,100327.28
2023-01-13T14:10:46.579Z,100359.19
2023-01-13T14:14:59.937Z,100347.09
2023-01-13T14:19:34.516Z,100398.44
2023-01-13T14:23:56.528Z,100394.41
2023-01-13T14:28:22.333Z,100412.66
2023-01-13T14:32:36.666Z,100416.97
2023-01-13T14:36:51.093Z,100421.38
2023-01-13T14:41:25.766Z,100425.38
2023-01-13T14:45:37.467Z,100430.72
2023-01-13T14:50:06.815Z,100420.84
2023-01-13T14:54:51.147Z,100449.44
2023-01-13T14:59:32.762Z,100443.84
2023-01-13T15:03:45.407Z,100453.97
2023-01-13T15:08:11.455Z,100467.00
2023-01-13T15:12:29.236Z,100481.38
2023-01-13T15:16:41.845Z,100491.56
2023-01-13T15:20:53.624Z,100489.28
2023-01-13T15:25:05.838Z,100500.81
2023-01-13T15:29:20.364Z,100513.19
2023-01-13T15:33:32.105Z,100513.41
2023-01-13T15:37:44.955Z,100509.81
2023-01-13T15:42:29.330Z,100534.84
2023-01-13T15:46:41.025Z,100543.91
2023-01-13T15:50:52.538Z,100544.31
2023-01-13T15:55:04.454Z,100559.41
2023-01-13T15:59:19.315Z,100550.63
2023-01-13T16:03:30.850Z,100575.13
2023-01-13T16:07:42.451Z,100557.50
2023-01-13T16:11:54.102Z,100561.44
2023-01-13T16:16:27.160Z,100581.13
2023-01-13T16:20:38.627Z,100581.59
2023-01-13T16:24:50.346Z,100580.63
2023-01-13T16:29:01.837Z,100580.63
2023-01-13T16:33:13.445Z,100582.09
2023-01-13T16:37:27.100Z,100603.53
2023-01-13T16:41:38.640Z,100607.03
2023-01-13T16:45:50.177Z,100627.44
2023-01-13T16:50:01.895Z,100615.69
2023-01-13T16:54:13.438Z,100619.41
2023-01-13T16:58:24.925Z,100621.69
2023-01-13T17:02:36.450Z,100628.09
2023-01-13T17:07:00.391Z,100643.59
2023-01-13T17:11:12.456Z,100652.69
2023-01-13T17:15:23.985Z,100654.09
2023-01-13T17:19:35.533Z,100652.47
2023-01-13T17:23:47.581Z,100656.94
2023-01-13T17:27:59.028Z,100671.97
2023-01-13T17:32:20.798Z,100679.00
2023-01-13T17:36:32.367Z,100690.94
2023-01-13T17:40:43.842Z,100742.72
2023-01-13T17:44:55.739Z,100719.63
2023-01-13T17:49:07.265Z,100752.56
2023-01-13T17:53:19.824Z,100736.06
2023-01-13T17:57:31.264Z,100754.38
2023-01-13T18:01:42.920Z,100743.28
2023-01-13T18:05:54.561Z,100811.34
2023-01-13T18:10:06.596Z,100763.66
2023-01-13T18:14:18.880Z,100761.78
2023-01-13T18:18:30.412Z,100785.84
2023-01-13T18:23:00.623Z,100759.91
2023-01-13T18:27:19.275Z,100754.56
2023-01-13T18:31:30.873Z,100758.28
2023-01-13T18:35:42.394Z,100753.78
2023-01-13T18:39:53.935Z,100764.84
2023-01-13T18:44:05.651Z,100775.34
2023-01-13T18:48:17.138Z,100791.78
2023-01-13T18:52:29.083Z,100794.69
2023-01-13T18:56:40.878Z,100790.16
2023-01-13T19:01:00.965Z,100777.63
2023-01-13T19:05:13.286Z,100796.56
2023-01-13T19:09:26.576Z,100790.56
2023-01-13T19:13:38.081Z,100797.59
2023-01-13T19:17:49.664Z,100814.88
2023-01-13T19:22:01.213Z,100791.81
2023-01-13T19:26:13.406Z,100843.44
2023-01-13T19:30:25.106Z,100814.41
2023-01-13T19:34:37.044Z,100836.66
2023-01-13T19:38:48.650Z,100845.88
2023-01-13T19:43:18.936Z,100852.88
2023-01-13T19:47:30.891Z,100869.31
2023-01-13T19:51:42.396Z,100875.91
2023-01-13T19:55:54.270Z,100877.16
2023-01-13T20:00:07.748Z,100882.72
2023-01-13T20:04:33.654Z,100881.06
2023-01-13T20:08:46.117Z,100888.41
2023-01-13T20:12:58.009Z,100893.75
2023-01-13T20:17:12.106Z,100903.81
2023-01-13T20:21:23.648Z,100904.66
2023-01-13T20:25:35.238Z,100903.63
2023-01-13T20:29:46.716Z,100902.66
2023-01-13T20:33:58.249Z,100913.00
2023-01-13T20:38:09.695Z,100916.91
2023-01-13T20:42:30.405Z,100919.44
2023-01-13T20:46:43.708Z,100954.00
2023-01-13T20:50:57.889Z,100926.44
2023-01-13T20:55:10.039Z,100936.69
2023-01-13T20:59:22.803Z,100937.88
2023-01-13T21:03:34.339Z,100997.50
2023-01-13T21:07:45.836Z,100962.28
2023-01-13T21:12:15.912Z,100972.78
2023-01-13T21:16:27.509Z,100978.19
2023-01-13T21:20:39.341Z,100966.47
2023-01-13T21:24:50.857Z,100960.91
2023-01-13T21:29:04.039Z,100962.78
2023-01-13T21:33:15.569Z,100971.22
2023-01-13T21:37:27.078Z,100964.84
2023-01-13T21:41:57.177Z,100969.00
2023-01-13T21:46:31.037Z,100966.50
2023-01-13T21:50:42.527Z,100976.59
2023-01-13T21:55:12.608Z,100965.06
2023-01-13T21:59:24.111Z,100977.41
2023-01-13T22:03:56.542Z,100990.78
2023-01-13T22:08:08.488Z,100989.38
2023-01-13T22:12:23.813Z,100993.28
2023-01-13T22:16:42.371Z,101002.34
2023-01-13T22:20:53.890Z,101004.84
2023-01-13T22:25:30.235Z,101025.66
2023-01-13T22:29:42.519Z,101026.44
2023-01-13T22:33:55.452Z,101022.16
2023-01-13T22:38:06.990Z,101029.56
2023-01-13T22:42:18.564Z,101033.09
2023-01-13T22:46:30.024Z,101020.28
2023-01-13T22:50:41.570Z,101019.91
2023-01-13T22:54:53.120Z,101032.88
2023-01-13T22:59:05.994Z,101022.81
2023-01-13T23:03:18.352Z,101035.16
2023-01-13T23:07:30.052Z,101035.97
2023-01-13T23:11:42.030Z,101041.53
2023-01-13T23:15:53.653Z,101043.78
2023-01-13T23:20:05.542Z,101044.63
2023-01-13T23:24:17.139Z,101040.72
2023-01-13T23:28:30.087Z,101042.94
2023-01-13T23:32:41.687Z,101049.31
2023-01-13T23:36:53.337Z,101041.69
2023-01-13T23:41:10.009Z,101045.00
2023-01-13T23:45:21.574Z,101034.25
2023-01-13T23:49:33.170Z,101017.19
2023-01-13T23:53:47.001Z,101022.16
2023-01-13T23:57:58.623Z,101020.69
